Nearby METAR Reports

EGNX - East Midlands, United Kingdom
Distance: S 18mi, 28km
Updated: 21/07/2019 17:50
Partly cloudy
Partly cloudy
 Wind from SSW
Wind: SSW 15 mph , 24 km/h
Temperature: 21°C
Dew Point: 13°C
Humidity: 60%
Barometer: 1018 hPa
Clouds: Partly cloudy
Visibility: 6 miles , 10 km
Cloud details: Partly cloudy 1219 m
2019/07/21 16:50 EGNX 211650Z 20013KT 9999 SCT040 21/13 Q1018
EGCN - Doncaster Sheffi, United Kingdom
Distance: NNE 31mi, 50km
Updated: 21/07/2019 18:20
Few Clouds
Few Clouds
 Wind from SSW
Wind: SSW 15 mph , 24 km/h
Temperature: 21°C
Dew Point: 13°C
Humidity: 60%
Barometer: 1018 hPa
Clouds: Few Clouds
Visibility: 6 miles , 10 km
Cloud details: Few Clouds 1158 m
2019/07/21 17:20 EGCN 211720Z 21013KT 9999 FEW038 21/13 Q1018
EGYE - Barkston Heath R, United Kingdom
Distance: ESE 31mi, 50km
Updated: 19/07/2019 13:50
NOT Current
Overcast
Overcast
 Wind from SSE
Wind: SSE 18 mph , 30 km/h
Barometer: 1009 hPa
Clouds: Overcast
Visibility: 6 miles , 10 km
Cloud details: Few Clouds 122 m
Partly cloudy 183 m
Overcast 305 m
2019/07/19 12:50 EGYE 191250Z 16016KT 9999 FEW004 SCT006 OVC010 ///// Q1009 RMK YLO1
 
EGXW - Waddington Raf, United Kingdom
Distance: ENE 33mi, 53km
Updated: 21/07/2019 17:50
Mostly cloudy
Mostly cloudy
 Wind from SW
Wind: SW 12 mph , 19 km/h
Temperature: 21°C
Dew Point: 13°C
Humidity: 60%
Barometer: 1018 hPa
Clouds: Mostly cloudy
Visibility: 6 miles , 10 km
Cloud details: Few Clouds 1372 m
Mostly cloudy 1524 m
Mostly cloudy 7620 m
2019/07/21 16:50 EGXW 211650Z 23010KT 9999 FEW045 BKN050 BKN250 21/13 Q1018 RMK BLU
EGYD - Cranwell Raf, United Kingdom
Distance: E 33mi, 53km
Updated: 21/07/2019 17:50
Mostly cloudy
Mostly cloudy
 Wind from SW
Wind: SW 15 mph , 24 km/h
Temperature: 21°C
Dew Point: 13°C
Humidity: 60%
Barometer: 1019 hPa
Clouds: Mostly cloudy
Visibility: 6 miles , 10 km
Cloud details: Mostly cloudy 1524 m
2019/07/21 16:50 EGYD 211650Z AUTO 22013KT 9999 // BKN050/// 21/13 Q1019
EGXP - Scampton Raf, United Kingdom
Distance: ENE 35mi, 56km
Updated: 21/07/2019 17:50
Mostly cloudy
Mostly cloudy
 Wind from SW
Wind: SW 15 mph , 24 km/h
Temperature: 21°C
Dew Point: 13°C
Humidity: 60%
Barometer: 1018 hPa
Clouds: Mostly cloudy
Visibility: 6 miles , 10 km
Cloud details: Mostly cloudy 1433 m
2019/07/21 16:50 EGXP 211650Z 23013KT 9999 BKN047 21/13 Q1018 RMK BLU
 
EGCC - Manchester Intl, United Kingdom
Distance: WNW 45mi, 72km
Updated: 21/07/2019 18:20
Mostly cloudy
Mostly cloudy
 Wind from SSW
Wind: SSW 6 mph , 9 km/h
Temperature: 20°C
Dew Point: 14°C
Humidity: 69%
Barometer: 1017 hPa
Clouds: Mostly cloudy
Visibility: 6 miles , 10 km
Cloud details: Mostly cloudy 1494 m
2019/07/21 17:20 EGCC 211720Z AUTO 20005KT 150V230 9999 BKN049 20/14 Q1017
EGBB - Birmingham Airpo, United Kingdom
Distance: SSW 46mi, 74km
Updated: 21/07/2019 18:20
Partly cloudy
Partly cloudy
 Wind from SSW
Wind: SSW 8 mph , 13 km/h
Temperature: 21°C
Dew Point: 14°C
Humidity: 64%
Barometer: 1019 hPa
Clouds: Partly cloudy
Visibility: 6 miles , 10 km
Cloud details: Partly cloudy 914 m
2019/07/21 17:20 EGBB 211720Z 20007KT 160V230 9999 SCT030 21/14 Q1019
EGXC - Coningsby Raf, United Kingdom
Distance: E 47mi, 75km
Updated: 21/07/2019 17:50
Overcast
Overcast
 Wind from SW
Wind: SW 13 mph , 20 km/h
Temperature: 22°C
Dew Point: 13°C
Humidity: 57%
Barometer: 1018 hPa
Clouds: Overcast
Visibility: 6 miles , 10 km
Cloud details: Few Clouds 1219 m
Partly cloudy 1524 m
Overcast 6096 m
2019/07/21 16:50 EGXC 211650Z 22011KT 9999 FEW040 SCT050 OVC200 22/13 Q1018 RMK BLU
 
EGXT - Wittering Raf, United Kingdom
Distance: SE 47mi, 75km
Updated: 21/07/2019 17:50
Mostly cloudy
Mostly cloudy
 Wind from SW
Wind: SW 16 mph , 26 km/h
Temperature: 22°C
Dew Point: 13°C
Humidity: 57%
Barometer: 1019 hPa
Clouds: Mostly cloudy
Visibility: 6 miles , 10 km
Cloud details: Mostly cloudy 1463 m
Mostly cloudy 5791 m
2019/07/21 16:50 EGXT 211650Z AUTO 23014KT 9999 BKN048/// BKN190/// 22/13 Q1019
EGNJ - Humberside, United Kingdom
Distance: NE 52mi, 83km
Updated: 21/07/2019 18:20
Few Clouds
Few Clouds
 Wind from SSW
Wind: SSW 15 mph , 24 km/h
Temperature: 22°C
Dew Point: 13°C
Humidity: 57%
Barometer: 1018 hPa
Clouds: Few Clouds
Visibility: 6 miles , 10 km
Cloud details: Few Clouds 1402 m
2019/07/21 17:20 EGNJ 211720Z 21013KT 9999 FEW046 22/13 Q1018
EGWC - Cosford Raf, United Kingdom
Distance: SW 52mi, 83km
Updated: 19/07/2019 13:50
NOT Current
Mostly cloudy
Mostly cloudy
 Wind from S
Wind: S 9 mph , 15 km/h
Temperature: 18°C
Dew Point: 16°C
Humidity: 88%
Barometer: 1007 hPa
Clouds: Mostly cloudy
Visibility: 6 miles , 10 km
Cloud details: Few Clouds 213 m
Mostly cloudy 305 m
2019/07/19 12:50 EGWC 191250Z 18008KT 9999 FEW007 BKN010 18/16 Q1007 GRN
 
EGNM - Leeds And Bradfo, United Kingdom
Distance: NNW 57mi, 91km
Updated: 21/07/2019 18:20
Partly cloudy
Partly cloudy
 Wind from SW
Wind: SW 12 mph , 19 km/h
Temperature: 19°C
Dew Point: 12°C
Humidity: 64%
Barometer: 1017 hPa
Clouds: Partly cloudy
Visibility: 6 miles , 10 km
Cloud details: Partly cloudy 1219 m
2019/07/21 17:20 EGNM 211720Z 22010KT 180V250 9999 SCT040 19/12 Q1017
EGOS - Shawbury Raf, United Kingdom
Distance: WSW 60mi, 97km
Updated: 21/07/2019 17:50
Partly cloudy
Partly cloudy
 Wind from SSW
Wind: SSW 17 mph , 28 km/h
Temperature: 21°C
Dew Point: 12°C
Humidity: 57%
Barometer: 1018 hPa
Clouds: Partly cloudy
Visibility: 6 miles , 10 km
Cloud details: Partly cloudy 1402 m
Partly cloudy 5791 m
2019/07/21 16:50 EGOS 211650Z AUTO 21015KT 9999 SCT046/// SCT190/// 21/12 Q1018
EGYH - Holbeach (aut), United Kingdom
Distance: ESE 62mi, 99km
Updated: 19/07/2019 10:50
NOT Current
Clear
Clear
 Wind from SW
Wind: SW 14 mph , 22 km/h
Temperature: 17°C
Dew Point: 13°C
Humidity: 77%
Barometer: 1011 hPa
Summary: Clear
Visibility: greater than 7 miles , 10 km
2019/07/19 09:50 EGYH 190950Z 22012KT CAVOK 17/13 Q1011 RMK BLU
 
EGXV - Leconfield (aut), United Kingdom
Distance: NNE 65mi, 105km
Updated: 21/07/2019 17:50
Partly cloudy
Partly cloudy
 Wind from SW
Wind: SW 12 mph , 19 km/h
Temperature: 22°C
Dew Point: 13°C
Humidity: 57%
Barometer: 1017 hPa
Clouds: Partly cloudy
Visibility: 6 miles , 10 km
Cloud details: Partly cloudy 1524 m
2019/07/21 16:50 EGXV 211650Z AUTO 23010KT 9999 SCT050/// 22/13 Q1017
EGXS - Donna Nook Raf, United Kingdom
Distance: ENE 66mi, 106km
Updated: 21/07/2019 17:50
Few Clouds
Few Clouds
 Wind from SSW
Wind: SSW 14 mph , 22 km/h
Temperature: 21°C
Dew Point: 12°C
Humidity: 57%
Barometer: 1018 hPa
Clouds: Few Clouds
Visibility: 6 miles , 10 km
Cloud details: Few Clouds 4572 m
2019/07/21 16:50 EGXS 211650Z AUTO 21012KT 9999 // FEW150/// 21/12 Q1018
EGGP - Liverpool Airpor, United Kingdom
Distance: WNW 67mi, 107km
Updated: 21/07/2019 18:20
Partly cloudy
Partly cloudy
 Wind from S
Wind: S 10 mph , 17 km/h
Temperature: 21°C
Dew Point: 14°C
Humidity: 64%
Barometer: 1017 hPa
Clouds: Partly cloudy
Visibility: 6 miles , 10 km
Cloud details: Few Clouds 1158 m
Partly cloudy 1341 m
2019/07/21 17:20 EGGP 211720Z 19009KT 9999 FEW038 SCT044 21/14 Q1017
 
EGXU - Linton-On-Ouse R, United Kingdom
Distance: N 68mi, 109km
Updated: 21/07/2019 17:50
Mostly cloudy
Mostly cloudy
 Wind from SSW
Wind: SSW 13 mph , 20 km/h
Temperature: 21°C
Dew Point: 12°C
Humidity: 57%
Barometer: 1017 hPa
Clouds: Mostly cloudy
Visibility: 6 miles , 10 km
Cloud details: Mostly cloudy 1524 m
2019/07/21 16:50 EGXU 211650Z AUTO 21011KT 9999 // BKN050/// 21/12 Q1017
EGNR - Hawarden (aut), United Kingdom
Distance: W 70mi, 112km
Updated: 21/07/2019 18:20
Partly cloudy
Partly cloudy
 Wind from SSW
Wind: SSW 16 mph , 26 km/h
Temperature: 21°C
Dew Point: 13°C
Humidity: 60%
Barometer: 1017 hPa
Clouds: Partly cloudy
Visibility: 6 miles , 10 km
Cloud details: Few Clouds 610 m
Partly cloudy 1067 m
2019/07/21 17:20 EGNR 211720Z 20014KT 9999 FEW020 SCT035 21/13 Q1017